createdAt,value
2023-11-07T00:00:18.000Z,433.3951721191406
2023-11-07T00:01:20.000Z,432.1188659667969
2023-11-07T00:02:23.000Z,433.09381103515625
2023-11-07T00:03:25.000Z,433.8801574707031
2023-11-07T00:04:27.000Z,436.4583435058594
2023-11-07T00:05:29.000Z,436.81280517578125
2023-11-07T00:06:31.000Z,435.9319763183594
2023-11-07T00:07:33.000Z,434.3128662109375
2023-11-07T00:08:36.000Z,433.7633056640625
2023-11-07T00:09:38.000Z,429.8809509277344
2023-11-07T00:10:40.000Z,431.9349060058594
2023-11-07T00:11:42.000Z,429.427734375
2023-11-07T00:12:44.000Z,429.5079040527344
2023-11-07T00:13:46.000Z,428.0483093261719
2023-11-07T00:14:48.000Z,429.5111083984375
2023-11-07T00:15:51.000Z,429.71923828125
2023-11-07T00:16:53.000Z,430.4661865234375
2023-11-07T00:17:55.000Z,431.90618896484375
2023-11-07T00:18:57.000Z,431.6764831542969
2023-11-07T00:19:59.000Z,432.46197509765625
2023-11-07T00:21:01.000Z,433.98980712890625
2023-11-07T00:22:04.000Z,432.5986328125
2023-11-07T00:23:06.000Z,429.9660949707031
2023-11-07T00:24:08.000Z,429.946533203125
2023-11-07T00:25:10.000Z,429.7763671875
2023-11-07T00:26:12.000Z,430.60467529296875
2023-11-07T00:27:14.000Z,428.0255126953125
2023-11-07T00:28:16.000Z,427.4162292480469
2023-11-07T00:29:19.000Z,426.75689697265625
2023-11-07T00:30:21.000Z,427.0015869140625
2023-11-07T00:31:23.000Z,428.4695739746094
2023-11-07T00:32:25.000Z,429.9902648925781
2023-11-07T00:33:27.000Z,430.3282165527344
2023-11-07T00:34:29.000Z,428.8229064941406
2023-11-07T00:35:32.000Z,429.4556884765625
2023-11-07T00:36:34.000Z,429.4378967285156
2023-11-07T00:37:36.000Z,431.6932067871094
2023-11-07T00:38:38.000Z,431.78167724609375
2023-11-07T00:39:40.000Z,432.46014404296875
2023-11-07T00:40:42.000Z,433.11090087890625
2023-11-07T00:41:44.000Z,430.8368225097656
2023-11-07T00:42:47.000Z,432.3692626953125
2023-11-07T00:43:49.000Z,433.2701721191406
2023-11-07T00:44:51.000Z,434.7107238769531
2023-11-07T00:45:53.000Z,435.9539794921875
2023-11-07T00:46:55.000Z,438.3007507324219
2023-11-07T00:47:57.000Z,439.2257385253906
2023-11-07T00:49:00.000Z,439.816162109375
2023-11-07T00:50:02.000Z,437.395751953125
2023-11-07T00:51:04.000Z,434.57958984375
2023-11-07T00:52:06.000Z,433.02398681640625
2023-11-07T00:53:08.000Z,430.5174865722656
2023-11-07T00:54:10.000Z,430.21533203125
2023-11-07T00:55:13.000Z,430.3534240722656
2023-11-07T00:56:15.000Z,430.5287780761719
2023-11-07T00:57:17.000Z,431.2055969238281
2023-11-07T00:58:19.000Z,434.19964599609375
2023-11-07T00:59:21.000Z,432.2759094238281
2023-11-07T01:00:23.000Z,433.5887756347656
2023-11-07T01:01:25.000Z,432.95562744140625
2023-11-07T01:02:28.000Z,431.8771057128906
2023-11-07T01:03:30.000Z,431.3633728027344
2023-11-07T01:04:32.000Z,432.20904541015625
2023-11-07T01:05:34.000Z,431.894775390625
2023-11-07T01:06:36.000Z,433.1100158691406
2023-11-07T01:07:38.000Z,431.13470458984375
2023-11-07T01:08:41.000Z,431.3212585449219
2023-11-07T01:09:43.000Z,430.3955383300781
2023-11-07T01:10:45.000Z,427.8750305175781
2023-11-07T01:11:47.000Z,429.8323974609375
2023-11-07T01:12:49.000Z,430.6441650390625
2023-11-07T01:13:51.000Z,428.96026611328125
2023-11-07T01:14:54.000Z,427.94976806640625
2023-11-07T01:15:56.000Z,430.8295593261719
2023-11-07T01:16:58.000Z,432.0109558105469
2023-11-07T01:18:00.000Z,434.781982421875
2023-11-07T01:19:02.000Z,432.2899169921875
2023-11-07T01:20:04.000Z,433.7320861816406
2023-11-07T01:21:06.000Z,434.7456970214844
2023-11-07T01:22:09.000Z,433.5920104980469
2023-11-07T01:23:11.000Z,432.64398193359375
2023-11-07T01:24:13.000Z,434.1104736328125
2023-11-07T01:25:15.000Z,434.95745849609375
2023-11-07T01:26:17.000Z,434.6328430175781
2023-11-07T01:27:20.000Z,431.826171875
2023-11-07T01:28:22.000Z,431.7845458984375
2023-11-07T01:29:24.000Z,431.300537109375
2023-11-07T01:30:26.000Z,431.0660705566406
2023-11-07T01:31:28.000Z,429.2532653808594
2023-11-07T01:32:30.000Z,428.294677734375
2023-11-07T01:33:33.000Z,429.05914306640625
2023-11-07T01:34:35.000Z,428.5208740234375
2023-11-07T01:35:37.000Z,428.9850158691406
2023-11-07T01:36:39.000Z,429.5538635253906
2023-11-07T01:37:41.000Z,431.4268798828125
2023-11-07T01:38:43.000Z,431.23779296875
2023-11-07T01:39:46.000Z,429.66729736328125
2023-11-07T01:40:48.000Z,430.1961975097656
2023-11-07T01:41:50.000Z,429.7185974121094
2023-11-07T01:42:52.000Z,431.0437927246094
2023-11-07T01:43:54.000Z,429.96441650390625
2023-11-07T01:44:56.000Z,429.5201110839844
2023-11-07T01:45:59.000Z,429.3646545410156
2023-11-07T01:47:01.000Z,432.8627624511719
2023-11-07T01:48:03.000Z,434.2763366699219
2023-11-07T01:49:05.000Z,434.9601135253906
2023-11-07T01:50:07.000Z,434.4044189453125
2023-11-07T01:51:09.000Z,430.99749755859375
2023-11-07T01:52:11.000Z,427.200927734375
2023-11-07T01:53:14.000Z,424.6152648925781
2023-11-07T01:54:16.000Z,425.2968444824219
2023-11-07T01:55:18.000Z,424.05853271484375
2023-11-07T01:56:20.000Z,424.7167663574219
2023-11-07T01:57:22.000Z,425.4422302246094
2023-11-07T01:58:24.000Z,427.3746643066406
2023-11-07T01:59:27.000Z,427.9787902832031
2023-11-07T02:00:29.000Z,431.69146728515625
2023-11-07T02:01:31.000Z,433.6280212402344
2023-11-07T02:02:33.000Z,431.3752136230469
2023-11-07T02:03:35.000Z,430.08782958984375
2023-11-07T02:04:37.000Z,430.6427001953125
2023-11-07T02:05:39.000Z,429.2811279296875
2023-11-07T02:06:41.000Z,429.9998779296875
2023-11-07T02:07:44.000Z,431.5930480957031
2023-11-07T02:08:46.000Z,433.5074768066406
2023-11-07T02:09:48.000Z,431.00946044921875
2023-11-07T02:10:50.000Z,428.7005310058594
2023-11-07T02:11:52.000Z,428.9467468261719
2023-11-07T02:12:54.000Z,428.4268798828125
2023-11-07T02:13:56.000Z,427.74041748046875
2023-11-07T02:14:59.000Z,427.08050537109375
2023-11-07T02:16:01.000Z,428.2855224609375
2023-11-07T02:17:03.000Z,428.455810546875
2023-11-07T02:18:05.000Z,429.4034423828125
2023-11-07T02:19:07.000Z,429.2652282714844
2023-11-07T02:20:09.000Z,430.2457275390625
2023-11-07T02:21:12.000Z,431.578125
2023-11-07T02:22:14.000Z,430.3286437988281
2023-11-07T02:23:16.000Z,428.1806945800781
2023-11-07T02:24:18.000Z,429.0856018066406
2023-11-07T02:25:20.000Z,428.56439208984375
2023-11-07T02:26:22.000Z,429.38714599609375
2023-11-07T02:27:24.000Z,431.57696533203125
2023-11-07T02:28:27.000Z,432.9053955078125
2023-11-07T02:29:29.000Z,434.5565490722656
2023-11-07T02:30:31.000Z,430.133056640625
2023-11-07T02:31:33.000Z,429.1708068847656
2023-11-07T02:32:35.000Z,428.9789123535156
2023-11-07T02:33:37.000Z,428.1022644042969
2023-11-07T02:34:40.000Z,427.9528503417969
2023-11-07T02:35:42.000Z,427.7296142578125
2023-11-07T02:36:44.000Z,427.8838195800781
2023-11-07T02:37:46.000Z,428.3282165527344
2023-11-07T02:38:48.000Z,431.4791564941406
2023-11-07T02:39:50.000Z,434.22320556640625
2023-11-07T02:40:52.000Z,435.08642578125
2023-11-07T02:41:55.000Z,434.34234619140625
2023-11-07T02:42:57.000Z,435.55841064453125
2023-11-07T02:43:59.000Z,434.39300537109375
2023-11-07T02:45:01.000Z,433.7892150878906
2023-11-07T02:46:03.000Z,433.0591735839844
2023-11-07T02:47:05.000Z,433.1235656738281
2023-11-07T02:48:08.000Z,432.2680969238281
2023-11-07T02:49:10.000Z,433.1670227050781
2023-11-07T02:50:12.000Z,433.2080383300781
2023-11-07T02:51:14.000Z,435.1090393066406
2023-11-07T02:52:16.000Z,435.8413391113281
2023-11-07T02:53:19.000Z,433.6249694824219
2023-11-07T02:54:21.000Z,435.2959899902344
2023-11-07T02:55:23.000Z,437.3140563964844
2023-11-07T02:56:25.000Z,438.0951843261719
2023-11-07T02:57:27.000Z,438.0849304199219
2023-11-07T02:58:29.000Z,436.0467834472656
2023-11-07T02:59:31.000Z,435.57391357421875
2023-11-07T03:00:34.000Z,432.7936096191406
2023-11-07T03:01:36.000Z,433.6982727050781
2023-11-07T03:02:38.000Z,434.9357604980469
2023-11-07T03:03:40.000Z,437.11407470703125
2023-11-07T03:04:42.000Z,436.2275390625
2023-11-07T03:05:44.000Z,438.3505859375
2023-11-07T03:06:47.000Z,442.3000793457031
2023-11-07T03:07:49.000Z,442.918701171875
2023-11-07T03:08:51.000Z,437.3695983886719
2023-11-07T03:09:53.000Z,436.04180908203125
2023-11-07T03:10:55.000Z,433.7890625
2023-11-07T03:11:57.000Z,433.6772766113281
2023-11-07T03:12:59.000Z,431.4215087890625
2023-11-07T03:14:02.000Z,428.783203125
2023-11-07T03:15:04.000Z,427.3249206542969
2023-11-07T03:16:06.000Z,430.71197509765625
2023-11-07T03:17:08.000Z,432.4932861328125
2023-11-07T03:18:10.000Z,432.3887634277344
2023-11-07T03:19:12.000Z,433.36346435546875
2023-11-07T03:20:15.000Z,432.7425842285156
2023-11-07T03:21:17.000Z,432.0437927246094
2023-11-07T03:22:19.000Z,430.5470886230469
2023-11-07T03:23:21.000Z,431.93902587890625
2023-11-07T03:24:23.000Z,433.1737060546875
2023-11-07T03:25:25.000Z,434.3797302246094
2023-11-07T03:26:27.000Z,436.3334045410156
2023-11-07T03:27:30.000Z,436.08868408203125
2023-11-07T03:28:32.000Z,437.85198974609375
2023-11-07T03:29:34.000Z,436.177734375
2023-11-07T03:30:36.000Z,435.9632873535156
2023-11-07T03:31:38.000Z,436.5879821777344
2023-11-07T03:32:40.000Z,437.4239196777344
2023-11-07T03:33:43.000Z,436.5833435058594
2023-11-07T03:34:45.000Z,435.970947265625
2023-11-07T03:35:47.000Z,434.50506591796875
2023-11-07T03:36:49.000Z,435.2823791503906
2023-11-07T03:37:51.000Z,435.2938232421875
2023-11-07T03:38:53.000Z,436.5452880859375
2023-11-07T03:39:55.000Z,435.25762939453125
2023-11-07T03:40:58.000Z,433.125
2023-11-07T03:42:00.000Z,432.17669677734375
2023-11-07T03:43:02.000Z,431.52392578125
2023-11-07T03:44:04.000Z,431.6212463378906
2023-11-07T03:45:06.000Z,431.007080078125
2023-11-07T03:46:08.000Z,429.9951171875
2023-11-07T03:47:10.000Z,430.9902648925781
2023-11-07T03:48:13.000Z,430.6912536621094
2023-11-07T03:49:15.000Z,429.7596740722656
2023-11-07T03:50:17.000Z,430.21307373046875
2023-11-07T03:51:19.000Z,429.1633605957031
2023-11-07T03:52:21.000Z,429.3150939941406
2023-11-07T03:53:23.000Z,430.39324951171875
2023-11-07T03:54:26.000Z,434.11370849609375
2023-11-07T03:55:28.000Z,436.0036926269531
2023-11-07T03:56:30.000Z,436.2611999511719
2023-11-07T03:57:32.000Z,433.3514099121094
2023-11-07T03:58:34.000Z,435.1769104003906
2023-11-07T03:59:36.000Z,437.3354187011719
2023-11-07T04:00:39.000Z,435.7336730957031
2023-11-07T04:01:41.000Z,435.30511474609375
2023-11-07T04:02:43.000Z,435.603515625
2023-11-07T04:03:45.000Z,437.0632629394531
2023-11-07T04:04:47.000Z,436.50018310546875
2023-11-07T04:05:49.000Z,435.8887939453125
2023-11-07T04:06:51.000Z,435.4217834472656
2023-11-07T04:07:54.000Z,436.6479187011719
2023-11-07T04:08:56.000Z,437.4898376464844
2023-11-07T04:09:58.000Z,435.156982421875
2023-11-07T04:11:00.000Z,433.4909362792969
2023-11-07T04:12:02.000Z,435.4527282714844
2023-11-07T04:13:04.000Z,434.6359558105469
2023-11-07T04:14:06.000Z,431.8298034667969
2023-11-07T04:15:09.000Z,430.6403503417969
2023-11-07T04:16:11.000Z,432.1294250488281
2023-11-07T04:17:13.000Z,431.838623046875
2023-11-07T04:18:15.000Z,433.59844970703125
2023-11-07T04:19:17.000Z,434.1748352050781
2023-11-07T04:20:19.000Z,434.7032165527344
2023-11-07T04:21:22.000Z,435.6378479003906
2023-11-07T04:22:24.000Z,434.1714782714844
2023-11-07T04:23:26.000Z,435.07366943359375
2023-11-07T04:24:28.000Z,436.7068176269531
2023-11-07T04:25:30.000Z,436.6064453125
2023-11-07T04:26:32.000Z,437.12371826171875
2023-11-07T04:27:34.000Z,437.7809143066406
2023-11-07T04:28:36.000Z,439.850830078125
2023-11-07T04:29:39.000Z,438.3010559082031
2023-11-07T04:30:41.000Z,435.63330078125
2023-11-07T04:31:43.000Z,434.84368896484375
2023-11-07T04:32:45.000Z,432.0555419921875
2023-11-07T04:33:47.000Z,432.322265625
2023-11-07T04:34:49.000Z,433.19732666015625
2023-11-07T04:35:52.000Z,433.2521057128906
2023-11-07T04:36:54.000Z,434.67938232421875
2023-11-07T04:37:56.000Z,435.4384765625
2023-11-07T04:38:58.000Z,437.2868957519531
2023-11-07T04:40:00.000Z,438.5030822753906
2023-11-07T04:41:03.000Z,440.7931823730469
2023-11-07T04:42:05.000Z,442.01123046875
2023-11-07T04:43:07.000Z,442.8143005371094
2023-11-07T04:44:09.000Z,444.43402099609375
2023-11-07T04:45:11.000Z,445.1512451171875
2023-11-07T04:46:13.000Z,445.3971252441406
2023-11-07T04:47:15.000Z,444.5307312011719
2023-11-07T04:48:18.000Z,445.54217529296875
2023-11-07T04:49:20.000Z,444.7709655761719
2023-11-07T04:50:22.000Z,443.31170654296875
2023-11-07T04:51:24.000Z,442.39581298828125
2023-11-07T04:52:26.000Z,442.034423828125
2023-11-07T04:53:28.000Z,441.7062072753906
2023-11-07T04:54:30.000Z,439.3093566894531
2023-11-07T04:55:33.000Z,439.4967041015625
2023-11-07T04:56:35.000Z,439.48150634765625
2023-11-07T04:57:37.000Z,439.8226623535156
2023-11-07T04:58:39.000Z,439.59600830078125
2023-11-07T04:59:41.000Z,437.6614990234375
2023-11-07T05:00:43.000Z,438.2133483886719
2023-11-07T05:01:46.000Z,438.4071960449219
2023-11-07T05:02:48.000Z,437.005126953125
2023-11-07T05:03:50.000Z,435.7735595703125
2023-11-07T05:04:52.000Z,436.0447082519531
2023-11-07T05:05:54.000Z,436.46038818359375
2023-11-07T05:06:57.000Z,436.2025451660156
2023-11-07T05:07:59.000Z,440.33660888671875
2023-11-07T05:09:01.000Z,442.0615234375
2023-11-07T05:10:03.000Z,440.100830078125
2023-11-07T05:11:05.000Z,439.28961181640625
2023-11-07T05:12:07.000Z,439.9809875488281
2023-11-07T05:13:10.000Z,442.18804931640625
2023-11-07T05:14:12.000Z,441.5276184082031
2023-11-07T05:15:14.000Z,439.91168212890625
2023-11-07T05:16:16.000Z,441.9242248535156
2023-11-07T05:17:18.000Z,444.262451171875
2023-11-07T05:18:20.000Z,443.7444152832031
2023-11-07T05:19:23.000Z,441.2533264160156
2023-11-07T05:20:25.000Z,441.7716979980469
2023-11-07T05:21:27.000Z,440.3966064453125
2023-11-07T05:22:29.000Z,437.9166564941406
2023-11-07T05:23:31.000Z,438.21942138671875
2023-11-07T05:24:33.000Z,438.6424255371094
2023-11-07T05:25:36.000Z,437.20477294921875
2023-11-07T05:26:38.000Z,436.4873046875
2023-11-07T05:27:40.000Z,435.47747802734375
2023-11-07T05:28:42.000Z,435.642822265625
2023-11-07T05:29:44.000Z,433.7536926269531
2023-11-07T05:30:46.000Z,434.3013610839844
2023-11-07T05:31:48.000Z,433.5103759765625
2023-11-07T05:32:50.000Z,431.3058166503906
2023-11-07T05:33:53.000Z,432.1070251464844
2023-11-07T05:34:55.000Z,433.91552734375
2023-11-07T05:35:57.000Z,432.32666015625
2023-11-07T05:36:59.000Z,432.8927307128906
2023-11-07T05:38:01.000Z,430.0977783203125
2023-11-07T05:39:04.000Z,427.99139404296875
2023-11-07T05:40:06.000Z,429.4184265136719
2023-11-07T05:41:08.000Z,431.6820373535156
2023-11-07T05:42:10.000Z,431.0130310058594
2023-11-07T05:43:12.000Z,430.51263427734375
2023-11-07T05:44:14.000Z,433.08258056640625
2023-11-07T05:45:17.000Z,433.9388122558594
2023-11-07T05:46:19.000Z,435.57476806640625
2023-11-07T05:47:21.000Z,435.4828186035156
2023-11-07T05:48:23.000Z,438.08709716796875
2023-11-07T05:49:25.000Z,437.6781005859375
2023-11-07T05:50:27.000Z,438.6246032714844
2023-11-07T05:51:30.000Z,438.9324035644531
2023-11-07T05:52:32.000Z,439.0953674316406
2023-11-07T05:53:34.000Z,436.2706298828125
2023-11-07T05:54:36.000Z,435.6763610839844
2023-11-07T05:55:38.000Z,435.75299072265625
2023-11-07T05:56:40.000Z,437.27508544921875
2023-11-07T05:57:42.000Z,438.60406494140625
2023-11-07T05:58:44.000Z,440.5334777832031
2023-11-07T05:59:47.000Z,439.8614196777344
2023-11-07T06:00:49.000Z,439.5949401855469
2023-11-07T06:01:51.000Z,439.5506896972656
2023-11-07T06:02:53.000Z,440.1199035644531
2023-11-07T06:03:55.000Z,441.7857666015625
2023-11-07T06:04:57.000Z,442.2837219238281
2023-11-07T06:06:00.000Z,441.00604248046875
2023-11-07T06:07:02.000Z,441.9991149902344
2023-11-07T06:08:04.000Z,442.0956726074219
2023-11-07T06:09:06.000Z,442.81207275390625
2023-11-07T06:10:08.000Z,440.9909362792969
2023-11-07T06:11:10.000Z,438.9773864746094
2023-11-07T06:12:13.000Z,438.4905700683594
2023-11-07T06:13:15.000Z,437.8228454589844
2023-11-07T06:14:17.000Z,436.81005859375
2023-11-07T06:15:19.000Z,436.71826171875
2023-11-07T06:16:21.000Z,437.6755065917969
2023-11-07T06:17:23.000Z,437.71337890625
2023-11-07T06:18:25.000Z,436.1219787597656
2023-11-07T06:19:28.000Z,437.612548828125
2023-11-07T06:20:30.000Z,438.1197509765625
2023-11-07T06:21:32.000Z,436.9111022949219
2023-11-07T06:22:34.000Z,434.39117431640625
2023-11-07T06:23:36.000Z,433.2981872558594
2023-11-07T06:24:38.000Z,432.0032043457031
2023-11-07T06:25:41.000Z,433.4068603515625
2023-11-07T06:26:43.000Z,435.7727355957031
2023-11-07T06:27:45.000Z,436.45697021484375
2023-11-07T06:28:47.000Z,434.8088684082031
2023-11-07T06:29:49.000Z,436.434326171875
2023-11-07T06:30:51.000Z,440.2594299316406
2023-11-07T06:31:54.000Z,438.7685241699219
2023-11-07T06:32:56.000Z,437.76959228515625
2023-11-07T06:33:58.000Z,436.98004150390625
2023-11-07T06:35:00.000Z,437.84185791015625
2023-11-07T06:36:02.000Z,436.0560607910156
2023-11-07T06:37:04.000Z,437.7723693847656
2023-11-07T06:38:07.000Z,437.64892578125
2023-11-07T06:39:09.000Z,438.1206359863281
2023-11-07T06:40:11.000Z,437.07403564453125
2023-11-07T06:41:13.000Z,434.14483642578125
2023-11-07T06:42:15.000Z,433.3924560546875
2023-11-07T06:43:18.000Z,433.63525390625
2023-11-07T06:44:20.000Z,434.1851501464844
2023-11-07T06:45:22.000Z,434.0690612792969
2023-11-07T06:46:24.000Z,434.60211181640625
2023-11-07T06:47:26.000Z,435.3951110839844
2023-11-07T06:48:28.000Z,435.57586669921875
2023-11-07T06:49:31.000Z,438.0940856933594
2023-11-07T06:50:33.000Z,437.72503662109375
2023-11-07T06:51:35.000Z,437.2526550292969
2023-11-07T06:52:37.000Z,436.2433776855469
2023-11-07T06:53:39.000Z,435.7849426269531
2023-11-07T06:54:41.000Z,435.7009582519531
2023-11-07T06:55:43.000Z,433.286376953125
2023-11-07T06:56:46.000Z,434.29864501953125
2023-11-07T06:57:48.000Z,434.4397277832031
2023-11-07T06:58:50.000Z,434.1051025390625
2023-11-07T06:59:52.000Z,432.6312561035156
2023-11-07T07:00:54.000Z,433.618896484375
2023-11-07T07:01:56.000Z,435.4612731933594
2023-11-07T07:02:59.000Z,436.6453857421875
2023-11-07T07:04:01.000Z,438.1884765625
2023-11-07T07:05:03.000Z,437.2613830566406
2023-11-07T07:06:05.000Z,434.33984375
2023-11-07T07:07:07.000Z,434.1898498535156
2023-11-07T07:08:09.000Z,434.8367919921875
2023-11-07T07:09:11.000Z,434.57293701171875
2023-11-07T07:10:14.000Z,435.4749755859375
2023-11-07T07:11:16.000Z,433.07513427734375
2023-11-07T07:12:18.000Z,431.3702392578125
2023-11-07T07:13:20.000Z,430.8562316894531
2023-11-07T07:14:22.000Z,431.500244140625
2023-11-07T07:15:24.000Z,435.11419677734375
2023-11-07T07:16:27.000Z,435.7735595703125
2023-11-07T07:17:29.000Z,436.67547607421875
2023-11-07T07:18:31.000Z,434.602294921875
2023-11-07T07:19:33.000Z,434.9306335449219
2023-11-07T07:20:35.000Z,432.69097900390625
2023-11-07T07:21:37.000Z,434.6068420410156
2023-11-07T07:22:40.000Z,435.5819091796875
2023-11-07T07:23:42.000Z,436.4509582519531
2023-11-07T07:24:44.000Z,436.49615478515625
2023-11-07T07:25:46.000Z,433.99969482421875
2023-11-07T07:26:48.000Z,434.8414611816406
2023-11-07T07:27:50.000Z,432.494140625
2023-11-07T07:28:53.000Z,433.3909606933594
2023-11-07T07:29:55.000Z,432.10614013671875
2023-11-07T07:30:57.000Z,433.3940124511719
2023-11-07T07:31:59.000Z,434.8927001953125
2023-11-07T07:33:01.000Z,436.57293701171875
2023-11-07T07:34:03.000Z,437.7593994140625
2023-11-07T07:35:05.000Z,437.37060546875
2023-11-07T07:36:08.000Z,435.0126953125
2023-11-07T07:37:10.000Z,435.02899169921875
2023-11-07T07:38:12.000Z,432.043212890625
2023-11-07T07:39:14.000Z,429.470703125
2023-11-07T07:40:16.000Z,426.42816162109375
2023-11-07T07:41:18.000Z,425.5574951171875
2023-11-07T07:42:21.000Z,424.5184631347656
2023-11-07T07:43:23.000Z,426.61578369140625
2023-11-07T07:44:25.000Z,427.64599609375
2023-11-07T07:45:27.000Z,427.6418762207031
2023-11-07T07:46:29.000Z,424.8232421875
2023-11-07T07:47:31.000Z,425.44281005859375
2023-11-07T07:48:33.000Z,428.1559753417969
2023-11-07T07:49:36.000Z,428.8318786621094
2023-11-07T07:50:38.000Z,430.31341552734375
2023-11-07T07:51:40.000Z,429.8414611816406
2023-11-07T07:52:42.000Z,427.595703125
2023-11-07T07:53:44.000Z,429.3200988769531
2023-11-07T07:54:46.000Z,432.0647888183594
2023-11-07T07:55:49.000Z,431.5350646972656
2023-11-07T07:56:51.000Z,431.2579345703125
2023-11-07T07:57:53.000Z,428.8970947265625
2023-11-07T07:58:55.000Z,427.05157470703125
2023-11-07T07:59:57.000Z,426.4759826660156
2023-11-07T08:00:59.000Z,425.60791015625
2023-11-07T08:02:01.000Z,427.1438293457031
2023-11-07T08:03:04.000Z,427.2588806152344
2023-11-07T08:04:06.000Z,426.59417724609375
2023-11-07T08:05:08.000Z,426.2361755371094
2023-11-07T08:06:10.000Z,426.11126708984375
2023-11-07T08:07:12.000Z,426.1808776855469
2023-11-07T08:08:14.000Z,425.7937927246094
2023-11-07T08:09:17.000Z,425.11419677734375
2023-11-07T08:10:19.000Z,426.38800048828125
2023-11-07T08:11:21.000Z,425.4896240234375
2023-11-07T08:12:23.000Z,423.0323791503906
2023-11-07T08:13:25.000Z,425.2591857910156
2023-11-07T08:14:27.000Z,424.9163513183594
2023-11-07T08:15:30.000Z,425.6958923339844
2023-11-07T08:16:32.000Z,425.9855651855469
2023-11-07T08:17:34.000Z,424.83740234375
2023-11-07T08:18:36.000Z,425.8438720703125
2023-11-07T08:19:38.000Z,425.32293701171875
2023-11-07T08:20:40.000Z,425.0507507324219
2023-11-07T08:21:43.000Z,425.5451354980469
2023-11-07T08:22:45.000Z,423.64154052734375
2023-11-07T08:23:47.000Z,423.759033203125
2023-11-07T08:24:49.000Z,422.5345153808594
2023-11-07T08:25:51.000Z,423.4399719238281
2023-11-07T08:26:53.000Z,422.4315490722656
2023-11-07T08:27:55.000Z,422.6664733886719
2023-11-07T08:28:58.000Z,423.9026184082031
2023-11-07T08:30:00.000Z,424.18585205078125
2023-11-07T08:31:02.000Z,426.4918518066406
2023-11-07T08:32:04.000Z,426.5902099609375
2023-11-07T08:33:06.000Z,426.46722412109375
2023-11-07T08:34:08.000Z,427.7305908203125
2023-11-07T08:35:10.000Z,426.6844177246094
2023-11-07T08:36:13.000Z,424.6315002441406
2023-11-07T08:37:15.000Z,427.1039733886719
2023-11-07T08:38:17.000Z,425.1243896484375
2023-11-07T08:39:19.000Z,425.51904296875
2023-11-07T08:40:21.000Z,425.4468688964844
2023-11-07T08:41:23.000Z,423.0492858886719
2023-11-07T08:42:25.000Z,421.0399169921875
2023-11-07T08:43:28.000Z,421.1669921875
2023-11-07T08:44:30.000Z,422.29638671875
2023-11-07T08:45:32.000Z,424.02935791015625
2023-11-07T08:46:34.000Z,426.0668640136719
2023-11-07T08:47:36.000Z,425.27716064453125
2023-11-07T08:48:38.000Z,425.941162109375
2023-11-07T08:49:41.000Z,425.9392395019531
2023-11-07T08:50:43.000Z,425.98333740234375
2023-11-07T08:51:45.000Z,424.8023376464844
2023-11-07T08:52:47.000Z,425.4449157714844
2023-11-07T08:53:49.000Z,425.05511474609375
2023-11-07T08:54:51.000Z,425.4349670410156
2023-11-07T08:55:54.000Z,425.9923095703125
2023-11-07T08:56:56.000Z,427.989990234375
2023-11-07T08:57:58.000Z,427.3931579589844
2023-11-07T08:59:00.000Z,429.33807373046875
2023-11-07T09:00:02.000Z,425.7223205566406
2023-11-07T09:01:04.000Z,424.5798034667969
2023-11-07T09:02:06.000Z,422.18157958984375
2023-11-07T09:03:09.000Z,421.53753662109375
2023-11-07T09:04:11.000Z,419.8056945800781
2023-11-07T09:05:13.000Z,418.85797119140625
2023-11-07T09:06:15.000Z,419.615234375
2023-11-07T09:07:17.000Z,420.2532043457031
2023-11-07T09:08:19.000Z,421.9821472167969
2023-11-07T09:09:22.000Z,421.34228515625
2023-11-07T09:10:24.000Z,421.4801940917969
2023-11-07T09:11:26.000Z,419.6633605957031
2023-11-07T09:12:28.000Z,420.2486572265625
2023-11-07T09:13:30.000Z,419.3952941894531
2023-11-07T09:14:32.000Z,418.584716796875
2023-11-07T09:15:35.000Z,421.39251708984375
2023-11-07T09:16:37.000Z,423.509033203125
2023-11-07T09:17:39.000Z,422.7979431152344
2023-11-07T09:18:41.000Z,422.95794677734375
2023-11-07T09:19:43.000Z,420.3248596191406
2023-11-07T09:20:45.000Z,420.137939453125
2023-11-07T09:21:48.000Z,418.2049560546875
2023-11-07T09:22:50.000Z,419.51275634765625
2023-11-07T09:23:52.000Z,419.4821472167969
2023-11-07T09:24:54.000Z,419.01885986328125
2023-11-07T09:25:56.000Z,420.49798583984375
2023-11-07T09:26:58.000Z,420.3755187988281
2023-11-07T09:28:00.000Z,418.5194396972656
2023-11-07T09:29:03.000Z,417.89422607421875
2023-11-07T09:30:05.000Z,415.6946105957031
2023-11-07T09:31:07.000Z,417.3569030761719
2023-11-07T09:32:09.000Z,417.24359130859375
2023-11-07T09:33:11.000Z,415.07720947265625
2023-11-07T09:34:13.000Z,415.7450866699219
2023-11-07T09:35:16.000Z,417.33746337890625
2023-11-07T09:36:18.000Z,418.07086181640625
2023-11-07T09:37:20.000Z,414.7782287597656